createdAt,value
2023-02-19T00:01:33.357Z,16.45
2023-02-19T00:04:03.578Z,14.55
2023-02-19T00:06:32.958Z,17.05
2023-02-19T00:09:01.602Z,18.15
2023-02-19T00:11:30.827Z,15.10
2023-02-19T00:13:59.328Z,17.30
2023-02-19T00:16:29.148Z,15.80
2023-02-19T00:18:57.869Z,15.23
2023-02-19T00:21:25.448Z,18.20
2023-02-19T00:23:54.262Z,15.93
2023-02-19T00:26:21.578Z,16.50
2023-02-19T00:28:49.911Z,16.00
2023-02-19T00:31:22.832Z,15.45
2023-02-19T00:33:52.014Z,14.20
2023-02-19T00:36:18.754Z,15.77
2023-02-19T00:38:46.206Z,16.75
2023-02-19T00:41:20.214Z,16.55
2023-02-19T00:43:54.226Z,13.98
2023-02-19T00:46:23.318Z,13.93
2023-02-19T00:48:50.562Z,15.48
2023-02-19T00:51:17.415Z,14.80
2023-02-19T00:53:44.436Z,15.43
2023-02-19T00:56:11.689Z,15.23
2023-02-19T00:58:38.623Z,14.60
2023-02-19T01:01:06.686Z,15.70
2023-02-19T01:03:34.918Z,14.00
2023-02-19T01:06:02.605Z,13.50
2023-02-19T01:08:31.141Z,13.70
2023-02-19T01:10:58.338Z,12.48
2023-02-19T01:13:25.437Z,14.50
2023-02-19T01:15:52.478Z,13.05
2023-02-19T01:18:19.080Z,12.73
2023-02-19T01:20:46.279Z,13.13
2023-02-19T01:23:13.998Z,13.68
2023-02-19T01:25:42.263Z,13.93
2023-02-19T01:28:11.016Z,16.10
2023-02-19T01:30:38.956Z,13.57
2023-02-19T01:33:06.982Z,10.68
2023-02-19T01:35:34.052Z,12.60
2023-02-19T01:38:00.667Z,14.07
2023-02-19T01:40:27.303Z,13.85
2023-02-19T01:42:54.098Z,12.45
2023-02-19T01:45:23.389Z,11.82
2023-02-19T01:47:58.941Z,11.57
2023-02-19T01:50:28.838Z,12.10
2023-02-19T01:52:55.771Z,12.93
2023-02-19T01:55:23.996Z,13.65
2023-02-19T01:57:55.475Z,14.07
2023-02-19T02:00:24.409Z,10.13
2023-02-19T02:02:54.929Z,13.35
2023-02-19T02:05:45.095Z,13.05
2023-02-19T02:08:32.109Z,12.27
2023-02-19T02:10:58.848Z,10.02
2023-02-19T02:13:25.536Z,12.55
2023-02-19T02:15:59.745Z,10.38
2023-02-19T02:18:41.201Z,12.02
2023-02-19T02:22:05.487Z,10.70
2023-02-19T02:24:49.389Z,9.98
2023-02-19T02:27:30.999Z,10.25
2023-02-19T02:30:15.710Z,12.38
2023-02-19T02:33:00.504Z,11.48
2023-02-19T02:35:32.914Z,10.98
2023-02-19T02:38:05.122Z,10.98
2023-02-19T02:40:31.923Z,10.73
2023-02-19T02:43:00.151Z,12.38
2023-02-19T02:45:35.520Z,11.18
2023-02-19T02:48:15.022Z,11.95
2023-02-19T02:50:51.190Z,11.02
2023-02-19T02:54:05.482Z,14.10
2023-02-19T02:56:33.509Z,12.10
2023-02-19T02:59:02.565Z,13.55
2023-02-19T03:02:00.913Z,11.38
2023-02-19T03:05:16.332Z,12.05
2023-02-19T03:07:58.061Z,13.90
2023-02-19T03:10:30.901Z,13.38
2023-02-19T03:13:18.908Z,16.38
2023-02-19T03:16:09.813Z,13.55
2023-02-19T03:18:58.653Z,14.45
2023-02-19T03:21:27.558Z,13.70
2023-02-19T03:24:15.759Z,13.10
2023-02-19T03:26:45.670Z,15.65
2023-02-19T03:29:28.976Z,14.23
2023-02-19T03:32:00.445Z,15.63
2023-02-19T03:34:35.254Z,14.90
2023-02-19T03:37:16.078Z,13.73
2023-02-19T03:39:46.463Z,12.88
2023-02-19T03:42:17.950Z,14.48
2023-02-19T03:45:02.576Z,15.20
2023-02-19T03:47:34.401Z,13.00
2023-02-19T03:50:08.865Z,13.20
2023-02-19T03:53:00.494Z,11.10
2023-02-19T03:55:38.936Z,12.98
2023-02-19T03:58:12.339Z,11.40
2023-02-19T04:00:52.352Z,15.13
2023-02-19T04:03:56.412Z,16.15
2023-02-19T04:06:27.633Z,15.98
2023-02-19T04:08:58.819Z,15.93
2023-02-19T04:11:27.635Z,15.73
2023-02-19T04:14:12.823Z,15.02
2023-02-19T04:16:45.602Z,14.88
2023-02-19T04:19:15.942Z,14.95
2023-02-19T04:21:44.553Z,15.55
2023-02-19T04:24:15.111Z,16.20
2023-02-19T04:26:43.233Z,14.07
2023-02-19T04:29:09.756Z,14.68
2023-02-19T04:31:37.103Z,15.43
2023-02-19T04:34:05.856Z,16.45
2023-02-19T04:36:33.180Z,15.88
2023-02-19T04:38:59.891Z,16.40
2023-02-19T04:41:26.586Z,14.15
2023-02-19T04:43:53.130Z,14.23
2023-02-19T04:46:19.905Z,14.73
2023-02-19T04:48:46.612Z,13.77
2023-02-19T04:51:13.400Z,13.43
2023-02-19T04:53:40.231Z,13.30
2023-02-19T04:56:15.283Z,14.63
2023-02-19T04:58:42.872Z,15.25
2023-02-19T05:01:10.556Z,13.43
2023-02-19T05:03:37.925Z,14.38
2023-02-19T05:06:06.662Z,13.20
2023-02-19T05:08:34.035Z,14.57
2023-02-19T05:11:02.856Z,12.95
2023-02-19T05:13:30.804Z,13.88
2023-02-19T05:16:00.431Z,14.13
2023-02-19T05:18:27.777Z,13.05
2023-02-19T05:20:54.466Z,14.15
2023-02-19T05:23:21.800Z,14.93
2023-02-19T05:25:48.489Z,16.15
2023-02-19T05:28:22.043Z,13.18
2023-02-19T05:30:51.204Z,13.77
2023-02-19T05:33:19.785Z,15.57
2023-02-19T05:35:48.727Z,16.70
2023-02-19T05:38:16.432Z,17.08
2023-02-19T05:40:43.992Z,15.63
2023-02-19T05:43:11.612Z,14.50
2023-02-19T05:45:38.352Z,15.20
2023-02-19T05:48:06.483Z,13.90
2023-02-19T05:50:35.658Z,16.83
2023-02-19T05:53:04.243Z,15.43
2023-02-19T05:55:35.274Z,14.48
2023-02-19T06:00:28.728Z,13.48
2023-02-19T06:02:55.401Z,12.57
2023-02-19T06:05:22.113Z,15.48
2023-02-19T06:07:51.700Z,14.65
2023-02-19T06:10:18.491Z,13.70
2023-02-19T06:12:45.504Z,15.35
2023-02-19T06:15:12.195Z,12.48
2023-02-19T06:17:38.928Z,14.30
2023-02-19T06:20:05.880Z,15.18
2023-02-19T06:22:32.538Z,13.50
2023-02-19T06:24:59.147Z,13.48
2023-02-19T06:27:25.874Z,18.48
2023-02-19T06:29:52.623Z,13.82
2023-02-19T06:32:21.065Z,16.08
2023-02-19T06:34:47.724Z,16.50
2023-02-19T06:37:15.712Z,14.30
2023-02-19T06:39:43.762Z,13.23
2023-02-19T06:42:10.377Z,14.63
2023-02-19T06:44:37.105Z,16.52
2023-02-19T06:47:03.762Z,16.17
2023-02-19T06:49:30.363Z,13.80
2023-02-19T06:51:57.078Z,15.52
2023-02-19T06:54:25.794Z,15.10
2023-02-19T06:56:52.639Z,14.10
2023-02-19T06:59:19.391Z,14.23
2023-02-19T07:01:46.386Z,13.80
2023-02-19T07:04:13.210Z,13.88
2023-02-19T07:06:40.382Z,12.68
2023-02-19T07:09:08.532Z,14.43
2023-02-19T07:11:36.675Z,14.02
2023-02-19T07:14:05.388Z,14.63
2023-02-19T07:16:32.176Z,14.93
2023-02-19T07:19:00.154Z,13.48
2023-02-19T07:21:27.640Z,13.95
2023-02-19T07:23:54.519Z,14.73
2023-02-19T07:26:21.764Z,13.73
2023-02-19T07:28:50.336Z,15.38
2023-02-19T07:31:19.073Z,14.93
2023-02-19T07:33:46.855Z,13.57
2023-02-19T07:36:14.820Z,17.42
2023-02-19T07:38:41.442Z,13.25
2023-02-19T07:41:08.593Z,13.00
2023-02-19T07:43:37.542Z,14.05
2023-02-19T07:46:06.146Z,11.82
2023-02-19T07:48:34.242Z,12.07
2023-02-19T07:51:03.684Z,10.98
2023-02-19T07:53:31.257Z,13.02
2023-02-19T07:56:03.084Z,12.32
2023-02-19T07:58:30.691Z,12.90
2023-02-19T08:00:57.820Z,14.38
2023-02-19T08:03:24.529Z,13.40
2023-02-19T08:05:51.616Z,15.95
2023-02-19T08:08:18.188Z,12.98
2023-02-19T08:11:03.326Z,13.43
2023-02-19T08:13:31.980Z,12.52
2023-02-19T08:16:17.095Z,14.77
2023-02-19T08:18:48.203Z,15.30
2023-02-19T08:21:18.403Z,14.30
2023-02-19T08:23:46.540Z,11.63
2023-02-19T08:26:13.486Z,14.05
2023-02-19T08:28:40.322Z,12.75
2023-02-19T08:31:08.704Z,12.18
2023-02-19T08:33:35.642Z,12.15
2023-02-19T08:36:07.845Z,13.07
2023-02-19T08:38:36.504Z,12.57
2023-02-19T08:41:14.237Z,15.05
2023-02-19T08:43:41.903Z,13.35
2023-02-19T08:46:10.436Z,12.52
2023-02-19T08:48:37.832Z,11.35
2023-02-19T08:51:08.538Z,12.10
2023-02-19T08:53:36.754Z,11.60
2023-02-19T08:56:12.505Z,9.18
2023-02-19T08:58:39.817Z,7.72
2023-02-19T09:01:11.530Z,6.03
2023-02-19T09:03:38.558Z,5.60
2023-02-19T09:06:05.568Z,4.32
2023-02-19T09:08:32.295Z,4.00
2023-02-19T09:11:04.786Z,5.60
2023-02-19T09:13:31.414Z,3.55
2023-02-19T09:15:58.242Z,5.90
2023-02-19T09:18:26.354Z,3.90
2023-02-19T09:20:52.993Z,5.35
2023-02-19T09:23:19.666Z,4.00
2023-02-19T09:25:46.561Z,3.30
2023-02-19T09:28:13.125Z,3.45
2023-02-19T09:30:39.864Z,4.10
2023-02-19T09:33:06.825Z,3.72
2023-02-19T09:35:33.502Z,2.83
2023-02-19T09:38:02.050Z,3.25
2023-02-19T09:40:30.626Z,3.90
2023-02-19T09:42:57.739Z,3.65
2023-02-19T09:45:26.201Z,2.97
2023-02-19T09:47:55.135Z,4.20
2023-02-19T09:50:26.204Z,3.40
2023-02-19T09:53:00.085Z,4.03
2023-02-19T09:55:39.200Z,4.22
2023-02-19T09:58:22.311Z,3.72
2023-02-19T10:00:50.851Z,3.90
2023-02-19T10:03:30.720Z,3.67
2023-02-19T10:06:00.084Z,4.95
2023-02-19T10:08:26.805Z,3.75
2023-02-19T10:10:54.907Z,2.70
2023-02-19T10:13:27.838Z,2.47
2023-02-19T10:15:57.083Z,2.38
2023-02-19T10:18:28.302Z,3.38
2023-02-19T10:20:56.696Z,4.97
2023-02-19T10:23:24.871Z,3.33
2023-02-19T10:25:59.095Z,3.47
2023-02-19T10:28:32.201Z,4.25
2023-02-19T10:31:01.446Z,3.30
2023-02-19T10:33:28.764Z,3.22
2023-02-19T10:36:06.205Z,3.78
2023-02-19T10:38:35.584Z,3.63
2023-02-19T10:41:05.774Z,4.25
2023-02-19T10:43:37.236Z,3.15
2023-02-19T10:46:19.236Z,2.80
2023-02-19T10:49:07.665Z,2.75
2023-02-19T10:51:42.252Z,4.75
2023-02-19T10:54:24.450Z,3.22
2023-02-19T10:56:51.130Z,3.67
2023-02-19T10:59:28.664Z,3.92
2023-02-19T11:01:57.565Z,3.05
2023-02-19T11:04:26.017Z,2.88
2023-02-19T11:06:52.988Z,3.15
2023-02-19T11:09:37.346Z,2.38
2023-02-19T11:12:05.851Z,4.05
2023-02-19T11:14:34.319Z,5.97
2023-02-19T11:17:06.787Z,4.05
2023-02-19T11:19:40.670Z,3.47
2023-02-19T11:22:21.300Z,3.67
2023-02-19T11:24:50.472Z,3.78
2023-02-19T11:27:23.456Z,4.38
2023-02-19T11:29:50.807Z,3.88
2023-02-19T11:32:20.198Z,4.47
2023-02-19T11:34:48.157Z,4.07
2023-02-19T11:37:17.042Z,4.68
2023-02-19T11:39:46.718Z,4.75
2023-02-19T11:42:29.828Z,3.65
2023-02-19T11:45:02.638Z,3.83
2023-02-19T11:47:56.156Z,3.70
2023-02-19T11:51:00.470Z,3.25
2023-02-19T11:53:37.409Z,4.53
2023-02-19T11:56:19.473Z,4.15
2023-02-19T11:59:00.842Z,5.32
2023-02-19T12:01:46.450Z,4.38
2023-02-19T12:04:50.762Z,4.68
2023-02-19T12:07:42.165Z,4.32
2023-02-19T12:10:17.632Z,3.50
2023-02-19T12:12:51.517Z,3.15
2023-02-19T12:15:38.237Z,3.72
2023-02-19T12:18:05.699Z,3.55
2023-02-19T12:20:48.517Z,4.28
2023-02-19T12:23:15.553Z,3.38
2023-02-19T12:25:51.217Z,5.13
2023-02-19T12:28:23.805Z,4.65
2023-02-19T12:30:50.365Z,2.65
2023-02-19T12:33:42.107Z,3.05
2023-02-19T12:36:19.024Z,3.72
2023-02-19T12:38:58.304Z,2.92
2023-02-19T12:41:29.882Z,3.63
2023-02-19T12:44:04.455Z,3.97
2023-02-19T12:46:43.228Z,5.45
2023-02-19T12:49:22.087Z,4.20
2023-02-19T12:51:50.909Z,2.75
2023-02-19T12:54:20.429Z,3.08
2023-02-19T12:57:06.722Z,4.38
2023-02-19T13:00:11.690Z,5.18
2023-02-19T13:03:04.794Z,3.92
2023-02-19T13:05:44.221Z,4.03
2023-02-19T13:08:29.748Z,3.75
2023-02-19T13:11:27.389Z,3.53
2023-02-19T13:14:03.698Z,3.97
2023-02-19T13:16:33.587Z,3.80
2023-02-19T13:19:02.442Z,3.58
2023-02-19T13:21:51.298Z,5.43
2023-02-19T13:24:37.043Z,3.40
2023-02-19T13:27:13.618Z,3.40
2023-02-19T13:30:05.369Z,4.70
2023-02-19T13:32:51.528Z,2.58
2023-02-19T13:35:33.368Z,2.88
2023-02-19T13:38:02.307Z,2.90
2023-02-19T13:40:35.545Z,4.05
2023-02-19T13:43:05.633Z,2.70
2023-02-19T13:45:41.697Z,4.30
2023-02-19T13:48:14.753Z,3.08
2023-02-19T13:50:42.571Z,2.78
2023-02-19T13:53:46.125Z,1.40
2023-02-19T13:56:36.457Z,1.23
2023-02-19T13:59:36.135Z,1.63
2023-02-19T14:02:02.718Z,0.93
2023-02-19T14:04:32.488Z,2.10
2023-02-19T14:07:05.246Z,0.98
2023-02-19T14:09:37.787Z,1.20
2023-02-19T14:12:06.438Z,1.25
2023-02-19T14:14:39.284Z,1.70
2023-02-19T14:17:08.903Z,0.75
2023-02-19T14:19:41.735Z,1.08
2023-02-19T14:22:58.146Z,1.48
2023-02-19T14:25:31.065Z,1.10
2023-02-19T14:28:02.999Z,1.08
2023-02-19T14:30:31.859Z,1.30
2023-02-19T14:33:10.177Z,1.73
2023-02-19T14:35:43.648Z,2.17
2023-02-19T14:38:36.361Z,3.13
2023-02-19T14:41:04.128Z,1.65
2023-02-19T14:43:31.630Z,2.25
2023-02-19T14:46:01.796Z,2.83
2023-02-19T14:48:35.722Z,2.28
2023-02-19T14:51:07.285Z,2.83
2023-02-19T14:53:38.727Z,7.65
2023-02-19T14:56:07.449Z,2.85
2023-02-19T14:58:34.209Z,3.97
2023-02-19T15:01:01.113Z,1.77
2023-02-19T15:03:33.559Z,1.92
2023-02-19T15:06:12.802Z,2.15
2023-02-19T15:08:45.237Z,1.90
2023-02-19T15:11:21.028Z,2.20
2023-02-19T15:13:54.116Z,1.52
2023-02-19T15:16:25.821Z,3.08
2023-02-19T15:18:54.423Z,1.85
2023-02-19T15:21:29.748Z,2.97
2023-02-19T15:23:59.637Z,1.55
2023-02-19T15:26:36.414Z,1.27
2023-02-19T15:29:24.511Z,1.05
2023-02-19T15:31:54.189Z,1.42
2023-02-19T15:34:28.612Z,1.55
2023-02-19T15:37:04.364Z,1.27
2023-02-19T15:39:38.037Z,1.35
2023-02-19T15:42:06.739Z,0.93
2023-02-19T15:44:38.971Z,2.85
2023-02-19T15:47:28.756Z,1.73
2023-02-19T15:50:03.799Z,1.52
2023-02-19T15:52:44.695Z,1.55
2023-02-19T15:55:37.234Z,1.42
2023-02-19T15:58:15.845Z,1.30
2023-02-19T16:00:45.174Z,2.92
2023-02-19T16:03:20.810Z,2.40
2023-02-19T16:06:05.689Z,2.65
2023-02-19T16:08:37.503Z,1.88
2023-02-19T16:11:07.473Z,2.53
2023-02-19T16:13:35.032Z,1.63
2023-02-19T16:16:27.884Z,2.67
2023-02-19T16:18:54.614Z,2.78
2023-02-19T16:21:23.846Z,1.70
2023-02-19T16:23:59.646Z,1.73
2023-02-19T16:26:26.520Z,1.70
2023-02-19T16:28:54.167Z,1.75
2023-02-19T16:31:23.775Z,2.10
2023-02-19T16:33:51.890Z,2.10
2023-02-19T16:36:41.560Z,1.75
2023-02-19T16:39:08.131Z,1.65
2023-02-19T16:41:53.643Z,2.00
2023-02-19T16:44:32.354Z,1.77
2023-02-19T16:47:04.980Z,2.65
2023-02-19T16:49:32.111Z,1.58
2023-02-19T16:52:04.393Z,1.92
2023-02-19T16:54:31.732Z,1.67
2023-02-19T16:56:58.456Z,1.95
2023-02-19T16:59:25.013Z,1.92
2023-02-19T17:01:51.845Z,1.95
2023-02-19T17:04:18.629Z,3.38
2023-02-19T17:06:45.680Z,2.00
2023-02-19T17:09:12.586Z,2.08
2023-02-19T17:11:39.698Z,1.55
2023-02-19T17:14:06.383Z,1.70
2023-02-19T17:16:40.577Z,4.32
2023-02-19T17:19:13.558Z,2.65
2023-02-19T17:21:40.404Z,2.17
2023-02-19T17:24:07.178Z,1.77
2023-02-19T17:26:34.088Z,3.05
2023-02-19T17:29:02.799Z,3.00
2023-02-19T17:31:29.524Z,1.83
2023-02-19T17:33:56.386Z,1.67
2023-02-19T17:36:27.156Z,1.80
2023-02-19T17:38:55.098Z,2.60
2023-02-19T17:41:21.842Z,1.52
2023-02-19T17:43:50.724Z,1.90
2023-02-19T17:46:18.793Z,2.42
2023-02-19T17:48:45.655Z,1.95
2023-02-19T17:51:12.799Z,1.92
2023-02-19T17:53:39.527Z,1.73
2023-02-19T17:56:06.594Z,2.40
2023-02-19T17:58:33.314Z,2.05
2023-02-19T18:00:59.941Z,2.63
2023-02-19T18:03:26.764Z,1.90
2023-02-19T18:05:53.454Z,2.60
2023-02-19T18:08:20.036Z,2.03
2023-02-19T18:10:46.843Z,2.08
2023-02-19T18:13:13.514Z,1.75
2023-02-19T18:15:40.054Z,3.40
2023-02-19T18:18:06.706Z,2.72
2023-02-19T18:20:33.511Z,1.63
2023-02-19T18:23:00.212Z,2.40
2023-02-19T18:25:26.961Z,3.30
2023-02-19T18:27:53.837Z,2.38
2023-02-19T18:30:22.831Z,3.33
2023-02-19T18:32:50.259Z,3.25
2023-02-19T18:35:18.852Z,1.77
2023-02-19T18:37:45.584Z,2.80
2023-02-19T18:40:12.694Z,1.67
2023-02-19T18:42:40.018Z,1.90
2023-02-19T18:45:07.026Z,2.53
2023-02-19T18:47:33.692Z,3.15
2023-02-19T18:50:00.374Z,2.78
2023-02-19T18:52:28.012Z,2.30
2023-02-19T18:54:57.257Z,2.10
2023-02-19T18:57:24.884Z,3.00
2023-02-19T18:59:51.724Z,2.67
2023-02-19T19:02:19.394Z,2.85
2023-02-19T19:04:51.090Z,2.25
2023-02-19T19:07:18.355Z,4.53
2023-02-19T19:09:45.055Z,3.85
2023-02-19T19:12:11.940Z,3.38
2023-02-19T19:14:38.549Z,2.28
2023-02-19T19:17:05.491Z,2.38
2023-02-19T19:19:32.272Z,3.15
2023-02-19T19:21:58.874Z,3.45
2023-02-19T19:24:25.661Z,3.13
2023-02-19T19:26:53.321Z,2.63
2023-02-19T19:29:22.172Z,2.22
2023-02-19T19:31:49.594Z,2.22
2023-02-19T19:34:17.376Z,3.33
2023-02-19T19:36:44.576Z,3.25
2023-02-19T19:39:11.997Z,1.98
2023-02-19T19:41:38.801Z,4.00
2023-02-19T19:44:07.076Z,3.15
2023-02-19T19:46:33.927Z,2.22
2023-02-19T19:49:01.094Z,4.18
2023-02-19T19:51:32.209Z,2.10
2023-02-19T19:53:58.805Z,3.03
2023-02-19T19:56:26.101Z,2.40
2023-02-19T19:58:52.710Z,2.45
2023-02-19T20:01:21.274Z,2.85
2023-02-19T20:03:48.336Z,3.72
2023-02-19T20:06:15.076Z,3.65
2023-02-19T20:08:41.655Z,3.25
2023-02-19T20:11:10.290Z,3.35
2023-02-19T20:13:37.417Z,5.60
2023-02-19T20:16:04.339Z,4.35
2023-02-19T20:18:31.093Z,3.10
2023-02-19T20:20:57.839Z,4.00
2023-02-19T20:23:26.152Z,4.55
2023-02-19T20:25:54.145Z,5.30
2023-02-19T20:28:20.791Z,4.72
2023-02-19T20:30:47.357Z,4.20
2023-02-19T20:33:14.081Z,6.57
2023-02-19T20:35:40.738Z,5.35
2023-02-19T20:38:07.383Z,4.82
2023-02-19T20:40:35.588Z,3.90
2023-02-19T20:43:03.099Z,3.33
2023-02-19T20:45:30.965Z,4.28
2023-02-19T20:47:57.741Z,4.85
2023-02-19T20:50:25.730Z,3.83
2023-02-19T20:52:55.878Z,4.00
2023-02-19T20:55:23.985Z,3.05
2023-02-19T20:57:50.754Z,4.03
2023-02-19T21:00:18.164Z,3.17
2023-02-19T21:02:47.007Z,2.92
2023-02-19T21:05:14.425Z,4.80
2023-02-19T21:07:40.986Z,3.70
2023-02-19T21:10:08.535Z,5.65
2023-02-19T21:12:36.504Z,2.90
2023-02-19T21:15:04.605Z,3.58
2023-02-19T21:17:31.342Z,3.40
2023-02-19T21:19:57.967Z,4.30
2023-02-19T21:22:24.511Z,3.33
2023-02-19T21:24:53.267Z,3.30
2023-02-19T21:27:20.500Z,2.67
2023-02-19T21:29:47.889Z,2.78
2023-02-19T21:32:14.692Z,3.35
2023-02-19T21:34:42.283Z,3.25
2023-02-19T21:37:08.838Z,3.45
2023-02-19T21:39:35.511Z,3.75
2023-02-19T21:42:03.900Z,3.60
2023-02-19T21:44:30.480Z,3.42
2023-02-19T21:46:57.382Z,3.47
2023-02-19T21:49:24.319Z,2.65
2023-02-19T21:51:51.012Z,2.65
2023-02-19T21:54:24.846Z,5.20
2023-02-19T21:56:52.814Z,3.45
2023-02-19T21:59:20.441Z,4.07
2023-02-19T22:01:47.717Z,3.33
2023-02-19T22:04:17.004Z,3.47
2023-02-19T22:06:43.869Z,3.20
2023-02-19T22:09:11.773Z,3.78
2023-02-19T22:11:38.625Z,4.18
2023-02-19T22:14:05.240Z,3.58
2023-02-19T22:16:32.198Z,3.90
2023-02-19T22:19:00.022Z,3.38
2023-02-19T22:21:32.541Z,4.05
2023-02-19T22:24:00.343Z,3.65
2023-02-19T22:26:31.668Z,5.40
2023-02-19T22:28:59.619Z,4.53
2023-02-19T22:31:27.970Z,3.97
2023-02-19T22:33:56.166Z,4.28
2023-02-19T22:36:28.072Z,4.97
2023-02-19T22:38:55.071Z,3.80
2023-02-19T22:41:22.410Z,3.55
2023-02-19T22:43:49.763Z,3.65
2023-02-19T22:46:21.977Z,3.33
2023-02-19T22:48:48.773Z,2.92
2023-02-19T22:51:18.208Z,4.57
2023-02-19T22:53:53.296Z,3.20
2023-02-19T22:56:22.488Z,3.38
2023-02-19T22:58:49.367Z,3.47
2023-02-19T23:01:16.389Z,3.53
2023-02-19T23:03:58.111Z,4.07
2023-02-19T23:06:27.078Z,3.55
2023-02-19T23:08:55.274Z,3.78
2023-02-19T23:11:24.453Z,5.40
2023-02-19T23:13:51.668Z,4.05
2023-02-19T23:16:18.461Z,4.10
2023-02-19T23:18:45.252Z,3.47
2023-02-19T23:21:13.122Z,4.63
2023-02-19T23:23:43.061Z,3.45
2023-02-19T23:26:09.846Z,4.05
2023-02-19T23:28:36.617Z,3.70
2023-02-19T23:31:03.237Z,4.75
2023-02-19T23:33:29.777Z,4.00
2023-02-19T23:35:56.869Z,4.30
2023-02-19T23:38:23.779Z,3.22
2023-02-19T23:40:50.345Z,3.13
2023-02-19T23:43:17.112Z,2.60
2023-02-19T23:45:44.036Z,3.10
2023-02-19T23:48:10.623Z,2.67
2023-02-19T23:50:37.375Z,4.03
2023-02-19T23:53:04.565Z,3.10
2023-02-19T23:55:31.154Z,3.45
2023-02-19T23:57:57.927Z,2.95
